createdAt,value
2022-11-08T00:02:01.564Z,29.13
2022-11-08T00:04:30.235Z,26.25
2022-11-08T00:07:16.492Z,29.83
2022-11-08T00:10:02.197Z,25.63
2022-11-08T00:12:49.343Z,25.83
2022-11-08T00:15:17.720Z,29.10
2022-11-08T00:17:47.459Z,26.55
2022-11-08T00:20:15.847Z,26.92
2022-11-08T00:22:44.168Z,25.65
2022-11-08T00:25:12.860Z,29.55
2022-11-08T00:27:41.229Z,29.00
2022-11-08T00:30:11.050Z,26.85
2022-11-08T00:32:39.452Z,26.30
2022-11-08T00:35:10.143Z,29.48
2022-11-08T00:37:38.715Z,31.08
2022-11-08T00:40:08.042Z,31.23
2022-11-08T00:42:36.370Z,28.58
2022-11-08T00:45:05.384Z,33.85
2022-11-08T00:47:34.892Z,25.85
2022-11-08T00:50:03.241Z,27.42
2022-11-08T00:52:34.682Z,26.23
2022-11-08T00:55:03.177Z,34.08
2022-11-08T00:57:47.205Z,31.30
2022-11-08T01:00:21.162Z,29.50
2022-11-08T01:03:10.295Z,30.38
2022-11-08T01:05:38.833Z,30.60
2022-11-08T01:08:08.852Z,28.88
2022-11-08T01:10:37.670Z,30.40
2022-11-08T01:13:05.973Z,31.02
2022-11-08T01:15:36.580Z,33.58
2022-11-08T01:18:05.174Z,30.65
2022-11-08T01:20:33.488Z,28.60
2022-11-08T01:23:01.915Z,26.73
2022-11-08T01:25:31.683Z,28.40
2022-11-08T01:28:00.240Z,28.80
2022-11-08T01:30:28.497Z,27.08
2022-11-08T01:32:56.921Z,30.10
2022-11-08T01:35:25.256Z,29.10
2022-11-08T01:37:53.656Z,38.90
2022-11-08T01:40:21.911Z,29.75
2022-11-08T01:42:51.639Z,31.50
2022-11-08T01:45:52.145Z,29.42
2022-11-08T01:48:20.679Z,28.77
2022-11-08T01:50:49.460Z,28.05
2022-11-08T01:53:17.981Z,28.55
2022-11-08T01:55:47.843Z,26.80
2022-11-08T01:58:20.688Z,27.70
2022-11-08T02:00:49.586Z,26.13
2022-11-08T02:03:20.203Z,26.77
2022-11-08T02:05:49.238Z,27.98
2022-11-08T02:08:23.749Z,27.05
2022-11-08T02:10:55.893Z,31.10
2022-11-08T02:13:29.741Z,27.15
2022-11-08T02:16:19.282Z,28.17
2022-11-08T02:18:49.786Z,33.10
2022-11-08T02:21:23.502Z,30.13
2022-11-08T02:23:55.256Z,28.88
2022-11-08T02:26:25.797Z,28.92
2022-11-08T02:28:54.112Z,27.02
2022-11-08T02:31:22.790Z,26.17
2022-11-08T02:33:51.597Z,30.35
2022-11-08T02:36:24.166Z,27.85
2022-11-08T02:38:56.233Z,27.10
2022-11-08T02:41:24.581Z,29.40
2022-11-08T02:43:52.824Z,29.00
2022-11-08T02:46:22.256Z,29.67
2022-11-08T02:48:51.421Z,34.92
2022-11-08T02:51:19.806Z,34.92
2022-11-08T02:53:48.099Z,42.42
2022-11-08T02:56:17.887Z,31.52
2022-11-08T02:58:46.163Z,30.23
2022-11-08T03:01:14.740Z,35.35
2022-11-08T03:03:43.131Z,29.33
2022-11-08T03:06:11.454Z,29.23
2022-11-08T03:08:39.856Z,31.88
2022-11-08T03:11:08.293Z,25.75
2022-11-08T03:13:40.558Z,28.80
2022-11-08T03:16:09.306Z,28.75
2022-11-08T03:18:37.733Z,27.60
2022-11-08T03:21:08.004Z,29.52
2022-11-08T03:23:36.568Z,30.95
2022-11-08T03:26:05.267Z,29.83
2022-11-08T03:28:33.988Z,28.60
2022-11-08T03:31:03.707Z,35.60
2022-11-08T03:33:32.342Z,29.55
2022-11-08T03:36:01.009Z,36.50
2022-11-08T03:38:29.560Z,29.08
2022-11-08T03:40:57.802Z,29.83
2022-11-08T03:43:27.488Z,31.95
2022-11-08T03:45:56.319Z,27.40
2022-11-08T03:48:25.992Z,28.48
2022-11-08T03:50:54.501Z,27.02
2022-11-08T03:53:22.720Z,23.90
2022-11-08T03:55:51.222Z,27.77
2022-11-08T03:58:19.750Z,25.42
2022-11-08T04:00:48.316Z,24.35
2022-11-08T04:03:16.749Z,22.42
2022-11-08T04:05:46.468Z,25.08
2022-11-08T04:08:15.307Z,21.75
2022-11-08T04:10:43.808Z,24.60
2022-11-08T04:13:29.568Z,24.73
2022-11-08T04:15:59.194Z,25.20
2022-11-08T04:18:45.395Z,24.80
2022-11-08T04:21:22.800Z,26.17
2022-11-08T04:23:53.005Z,23.08
2022-11-08T04:26:24.376Z,25.92
2022-11-08T04:28:52.732Z,22.35
2022-11-08T04:31:21.520Z,23.13
2022-11-08T04:33:49.910Z,22.58
2022-11-08T04:36:19.645Z,21.02
2022-11-08T04:38:49.799Z,22.35
2022-11-08T04:41:19.691Z,22.20
2022-11-08T04:43:49.040Z,22.13
2022-11-08T04:46:19.346Z,20.67
2022-11-08T04:48:48.451Z,19.60
2022-11-08T04:51:20.675Z,18.95
2022-11-08T04:53:49.018Z,17.00
2022-11-08T04:56:20.010Z,17.70
2022-11-08T04:58:50.258Z,20.05
2022-11-08T05:01:20.516Z,16.52
2022-11-08T05:03:50.862Z,18.40
2022-11-08T05:06:23.051Z,18.15
2022-11-08T05:08:51.471Z,21.65
2022-11-08T05:11:22.050Z,19.73
2022-11-08T05:13:51.805Z,22.63
2022-11-08T05:16:22.281Z,18.60
2022-11-08T05:18:51.178Z,19.80
2022-11-08T05:21:40.061Z,18.70
2022-11-08T05:24:11.116Z,19.20
2022-11-08T05:26:42.153Z,18.50
2022-11-08T05:29:11.398Z,17.67
2022-11-08T05:31:39.840Z,17.02
2022-11-08T05:34:08.497Z,15.98
2022-11-08T05:36:38.240Z,16.83
2022-11-08T05:39:06.697Z,19.73
2022-11-08T05:41:35.098Z,16.35
2022-11-08T05:44:03.384Z,16.17
2022-11-08T05:46:31.807Z,19.15
2022-11-08T05:49:00.299Z,16.52
2022-11-08T05:51:28.675Z,15.15
2022-11-08T05:53:58.411Z,16.27
2022-11-08T05:56:26.769Z,19.52
2022-11-08T05:58:55.313Z,16.17
2022-11-08T06:01:23.770Z,14.65
2022-11-08T06:03:53.042Z,19.60
2022-11-08T06:06:23.310Z,14.45
2022-11-08T06:08:54.636Z,18.50
2022-11-08T06:11:26.355Z,16.73
2022-11-08T06:13:55.884Z,17.00
2022-11-08T06:16:25.784Z,15.18
2022-11-08T06:18:54.407Z,16.73
2022-11-08T06:21:23.453Z,14.95
2022-11-08T06:23:54.050Z,18.05
2022-11-08T06:26:24.576Z,13.35
2022-11-08T06:28:54.500Z,18.02
2022-11-08T06:31:23.001Z,15.75
2022-11-08T06:33:51.567Z,16.45
2022-11-08T06:36:21.624Z,16.52
2022-11-08T06:38:55.203Z,14.40
2022-11-08T06:43:53.613Z,16.17
2022-11-08T06:46:21.994Z,17.58
2022-11-08T06:48:50.724Z,16.92
2022-11-08T06:51:19.459Z,14.60
2022-11-08T06:53:47.886Z,15.27
2022-11-08T06:56:16.155Z,16.80
2022-11-08T06:58:46.104Z,16.58
2022-11-08T07:01:14.651Z,23.38
2022-11-08T07:03:43.059Z,17.70
2022-11-08T07:06:11.647Z,19.33
2022-11-08T07:08:41.379Z,17.30
2022-11-08T07:11:10.227Z,20.42
2022-11-08T07:13:38.567Z,20.90
2022-11-08T07:16:08.936Z,19.98
2022-11-08T07:18:37.502Z,21.38
2022-11-08T07:21:06.085Z,22.67
2022-11-08T07:23:34.950Z,19.92
2022-11-08T07:26:03.962Z,17.52
2022-11-08T07:28:33.099Z,19.88
2022-11-08T07:31:03.502Z,22.80
2022-11-08T07:33:33.477Z,24.05
2022-11-08T07:36:02.022Z,21.50
2022-11-08T07:38:30.411Z,21.45
2022-11-08T07:40:59.202Z,21.10
2022-11-08T07:43:28.876Z,21.38
2022-11-08T07:48:32.779Z,19.80
2022-11-08T07:51:01.123Z,21.30
2022-11-08T07:53:30.071Z,20.65
2022-11-08T07:55:58.488Z,21.00
2022-11-08T07:58:27.257Z,22.83
2022-11-08T08:01:01.065Z,24.58
2022-11-08T08:03:30.560Z,24.63
2022-11-08T08:06:01.505Z,24.33
2022-11-08T08:08:31.235Z,23.08
2022-11-08T08:11:00.692Z,22.13
2022-11-08T08:13:29.525Z,24.50
2022-11-08T08:16:00.754Z,22.05
2022-11-08T08:18:30.054Z,25.23
2022-11-08T08:20:58.564Z,23.50
2022-11-08T08:23:28.524Z,23.83
2022-11-08T08:25:57.231Z,21.70
2022-11-08T08:28:26.202Z,27.45
2022-11-08T08:30:54.539Z,22.35
2022-11-08T08:33:30.279Z,23.23
2022-11-08T08:36:01.298Z,18.10
2022-11-08T08:38:32.204Z,20.17
2022-11-08T08:41:00.897Z,22.63
2022-11-08T08:43:29.387Z,20.88
2022-11-08T08:46:01.023Z,18.30
2022-11-08T08:48:29.445Z,21.40
2022-11-08T08:50:57.968Z,20.48
2022-11-08T08:53:26.433Z,20.17
2022-11-08T08:55:56.305Z,25.10
2022-11-08T08:58:25.436Z,19.23
2022-11-08T09:03:42.173Z,20.65
2022-11-08T09:06:11.059Z,21.65
2022-11-08T09:08:39.491Z,19.13
2022-11-08T09:11:10.677Z,16.88
2022-11-08T09:13:39.127Z,15.75
2022-11-08T09:16:08.178Z,15.20
2022-11-08T09:18:39.386Z,14.50
2022-11-08T09:21:07.983Z,15.93
2022-11-08T09:23:36.598Z,14.55
2022-11-08T09:26:06.396Z,15.43
2022-11-08T09:28:37.429Z,15.73
2022-11-08T09:31:09.311Z,15.10
2022-11-08T09:33:39.258Z,16.38
2022-11-08T09:36:10.096Z,16.17
2022-11-08T09:38:38.912Z,15.95
2022-11-08T09:41:26.780Z,14.45
2022-11-08T09:44:10.574Z,14.55
2022-11-08T09:46:43.360Z,16.25
2022-11-08T09:49:17.655Z,14.40
2022-11-08T09:51:46.177Z,12.93
2022-11-08T09:54:22.084Z,14.73
2022-11-08T09:56:52.593Z,13.18
2022-11-08T09:59:35.994Z,15.48
2022-11-08T10:02:04.568Z,14.77
2022-11-08T10:04:34.774Z,15.45
2022-11-08T10:07:14.665Z,14.95
2022-11-08T10:09:53.572Z,13.13
2022-11-08T10:12:26.987Z,13.88
2022-11-08T10:15:12.167Z,19.38
2022-11-08T10:18:00.721Z,12.60
2022-11-08T10:20:40.065Z,18.15
2022-11-08T10:23:21.616Z,14.65
2022-11-08T10:25:55.453Z,15.43
2022-11-08T10:28:29.404Z,13.05
2022-11-08T10:31:00.783Z,15.43
2022-11-08T10:33:34.384Z,15.35
2022-11-08T10:38:37.624Z,14.05
2022-11-08T10:41:14.458Z,12.32
2022-11-08T10:43:48.187Z,14.02
2022-11-08T10:49:01.228Z,11.63
2022-11-08T10:51:29.847Z,11.68
2022-11-08T10:53:58.431Z,12.93
2022-11-08T10:56:28.219Z,16.08
2022-11-08T10:58:56.686Z,12.60
2022-11-08T11:01:26.725Z,16.73
2022-11-08T11:03:55.458Z,13.20
2022-11-08T11:06:29.950Z,13.70
2022-11-08T11:09:01.034Z,13.68
2022-11-08T11:11:39.162Z,13.73
2022-11-08T11:14:19.367Z,12.60
2022-11-08T11:17:02.288Z,12.55
2022-11-08T11:19:32.160Z,12.30
2022-11-08T11:22:05.049Z,13.15
2022-11-08T11:24:35.709Z,11.35
2022-11-08T11:27:09.907Z,14.15
2022-11-08T11:29:39.723Z,14.38
2022-11-08T11:32:25.917Z,14.85
2022-11-08T11:37:32.020Z,12.68
2022-11-08T11:40:08.564Z,13.27
2022-11-08T11:42:47.311Z,13.93
2022-11-08T11:45:20.764Z,14.90
2022-11-08T11:47:53.493Z,12.68
2022-11-08T11:50:32.464Z,10.98
2022-11-08T11:53:06.224Z,17.75
2022-11-08T11:55:52.147Z,14.18
2022-11-08T11:58:35.353Z,13.05
2022-11-08T12:01:14.495Z,10.85
2022-11-08T12:04:11.514Z,9.45
2022-11-08T12:06:47.045Z,9.52
2022-11-08T12:09:43.260Z,10.90
2022-11-08T12:12:24.142Z,9.88
2022-11-08T12:15:01.616Z,10.68
2022-11-08T12:17:54.485Z,12.27
2022-11-08T12:20:38.446Z,8.60
2022-11-08T12:23:38.730Z,11.30
2022-11-08T12:26:16.861Z,8.40
2022-11-08T12:29:01.280Z,11.05
2022-11-08T12:31:34.856Z,10.15
2022-11-08T12:34:21.617Z,7.80
2022-11-08T12:37:00.979Z,11.73
2022-11-08T12:39:37.241Z,7.10
2022-11-08T12:42:20.032Z,9.18
2022-11-08T12:45:01.305Z,10.80
2022-11-08T12:47:36.685Z,8.60
2022-11-08T12:50:19.152Z,12.00
2022-11-08T12:53:15.418Z,6.32
2022-11-08T12:55:47.893Z,5.68
2022-11-08T12:58:33.830Z,6.15
2022-11-08T13:01:07.216Z,8.18
2022-11-08T13:04:00.578Z,6.00
2022-11-08T13:06:37.152Z,6.55
2022-11-08T13:09:18.874Z,5.85
2022-11-08T13:12:03.477Z,7.55
2022-11-08T13:14:38.595Z,8.68
2022-11-08T13:17:23.085Z,7.22
2022-11-08T13:20:05.734Z,7.72
2022-11-08T13:23:02.168Z,5.05
2022-11-08T13:25:37.052Z,4.72
2022-11-08T13:28:50.228Z,7.57
2022-11-08T13:31:28.851Z,7.90
2022-11-08T13:34:20.930Z,6.72
2022-11-08T13:37:16.343Z,6.85
2022-11-08T13:40:17.537Z,7.10
2022-11-08T13:43:20.091Z,6.65
2022-11-08T13:45:50.707Z,7.10
2022-11-08T13:48:39.038Z,5.90
2022-11-08T13:51:41.073Z,5.40
2022-11-08T13:54:42.331Z,8.02
2022-11-08T13:57:19.848Z,5.47
2022-11-08T13:59:59.364Z,8.15
2022-11-08T14:02:48.216Z,6.45
2022-11-08T14:05:28.005Z,10.35
2022-11-08T14:08:24.357Z,6.63
2022-11-08T14:11:31.625Z,7.22
2022-11-08T14:14:38.504Z,5.57
2022-11-08T14:17:41.925Z,7.28
2022-11-08T14:20:24.616Z,4.72
2022-11-08T14:22:53.386Z,6.22
2022-11-08T14:25:29.674Z,6.03
2022-11-08T14:27:59.659Z,5.07
2022-11-08T14:30:28.675Z,7.10
2022-11-08T14:33:18.655Z,5.78
2022-11-08T14:35:55.955Z,6.32
2022-11-08T14:38:26.278Z,4.97
2022-11-08T14:41:00.105Z,5.65
2022-11-08T14:43:30.505Z,5.80
2022-11-08T14:45:59.390Z,5.15
2022-11-08T14:48:32.517Z,4.68
2022-11-08T14:51:03.082Z,7.32
2022-11-08T14:53:34.284Z,9.60
2022-11-08T14:56:16.010Z,5.97
2022-11-08T14:58:45.663Z,6.80
2022-11-08T15:01:16.842Z,5.78
2022-11-08T15:03:56.858Z,5.05
2022-11-08T15:09:05.602Z,5.32
2022-11-08T15:11:37.177Z,6.30
2022-11-08T15:14:07.665Z,8.40
2022-11-08T15:16:42.532Z,6.88
2022-11-08T15:19:33.057Z,5.53
2022-11-08T15:22:04.394Z,5.22
2022-11-08T15:24:39.052Z,8.60
2022-11-08T15:27:17.732Z,7.18
2022-11-08T15:29:58.547Z,6.63
2022-11-08T15:32:27.621Z,6.35
2022-11-08T15:34:58.729Z,6.80
2022-11-08T15:37:33.988Z,9.48
2022-11-08T15:40:03.961Z,8.77
2022-11-08T15:42:34.491Z,8.13
2022-11-08T15:45:05.549Z,7.38
2022-11-08T15:47:46.752Z,6.45
2022-11-08T15:50:19.617Z,7.38
2022-11-08T15:52:50.563Z,7.78
2022-11-08T15:55:21.502Z,6.80
2022-11-08T15:57:52.632Z,12.02
2022-11-08T16:00:24.276Z,9.02
2022-11-08T16:02:55.601Z,6.72
2022-11-08T16:05:27.116Z,7.43
2022-11-08T16:07:56.440Z,6.78
2022-11-08T16:10:30.357Z,6.57
2022-11-08T16:13:02.776Z,9.00
2022-11-08T16:15:34.923Z,6.57
2022-11-08T16:18:04.043Z,8.10
2022-11-08T16:20:35.815Z,8.60
2022-11-08T16:23:08.688Z,7.50
2022-11-08T16:25:39.979Z,8.45
2022-11-08T16:28:17.910Z,6.95
2022-11-08T16:30:48.101Z,7.57
2022-11-08T16:33:22.970Z,7.75
2022-11-08T16:35:55.774Z,8.10
2022-11-08T16:38:29.317Z,7.65
2022-11-08T16:40:58.374Z,7.53
2022-11-08T16:43:26.828Z,9.70
2022-11-08T16:46:10.947Z,7.00
2022-11-08T16:48:43.934Z,11.63
2022-11-08T16:51:19.512Z,8.13
2022-11-08T16:53:48.679Z,8.13
2022-11-08T16:56:17.803Z,9.77
2022-11-08T16:58:46.415Z,10.02
2022-11-08T17:01:17.518Z,7.13
2022-11-08T17:03:47.322Z,8.52
2022-11-08T17:06:20.463Z,8.23
2022-11-08T17:08:49.776Z,7.90
2022-11-08T17:11:20.179Z,7.05
2022-11-08T17:13:48.808Z,8.75
2022-11-08T17:16:26.156Z,8.45
2022-11-08T17:18:54.723Z,8.63
2022-11-08T17:24:19.801Z,11.80
2022-11-08T17:26:50.050Z,9.88
2022-11-08T17:29:18.788Z,12.60
2022-11-08T17:31:47.375Z,9.88
2022-11-08T17:34:16.183Z,8.95
2022-11-08T17:36:46.962Z,9.77
2022-11-08T17:39:18.553Z,10.38
2022-11-08T17:41:47.199Z,8.52
2022-11-08T17:44:17.115Z,10.55
2022-11-08T17:46:45.529Z,9.05
2022-11-08T17:49:17.200Z,9.95
2022-11-08T17:51:49.663Z,10.98
2022-11-08T17:54:18.193Z,9.80
2022-11-08T17:56:47.229Z,9.77
2022-11-08T17:59:15.843Z,10.57
2022-11-08T18:01:44.506Z,10.88
2022-11-08T18:04:17.793Z,10.90
2022-11-08T18:06:48.819Z,10.93
2022-11-08T18:09:17.454Z,9.45
2022-11-08T18:11:47.973Z,11.32
2022-11-08T18:14:17.354Z,10.70
2022-11-08T18:16:49.120Z,11.45
2022-11-08T18:19:17.976Z,10.88
2022-11-08T18:21:48.224Z,10.85
2022-11-08T18:24:16.854Z,12.27
2022-11-08T18:26:45.445Z,11.20
2022-11-08T18:29:14.617Z,13.25
2022-11-08T18:31:44.634Z,13.15
2022-11-08T18:34:13.183Z,13.02
2022-11-08T18:36:42.818Z,13.48
2022-11-08T18:39:18.109Z,20.05
2022-11-08T18:41:48.197Z,16.27
2022-11-08T18:44:16.628Z,12.63
2022-11-08T18:46:45.224Z,13.73
2022-11-08T18:49:13.590Z,13.88
2022-11-08T18:51:42.117Z,19.42
2022-11-08T18:54:11.346Z,12.73
2022-11-08T18:56:41.824Z,13.88
2022-11-08T18:59:10.690Z,12.32
2022-11-08T19:01:39.101Z,14.55
2022-11-08T19:04:09.666Z,14.32
2022-11-08T19:06:39.097Z,16.00
2022-11-08T19:09:07.827Z,15.07
2022-11-08T19:11:37.264Z,16.13
2022-11-08T19:14:07.039Z,16.60
2022-11-08T19:16:35.452Z,19.20
2022-11-08T19:19:03.947Z,16.77
2022-11-08T19:21:34.439Z,14.45
2022-11-08T19:24:05.865Z,14.02
2022-11-08T19:26:35.044Z,19.92
2022-11-08T19:29:06.536Z,16.83
2022-11-08T19:31:36.529Z,16.23
2022-11-08T19:34:05.715Z,19.15
2022-11-08T19:36:35.606Z,17.08
2022-11-08T19:39:04.751Z,16.70
2022-11-08T19:41:35.515Z,15.02
2022-11-08T19:44:06.811Z,16.77
2022-11-08T19:46:36.554Z,15.05
2022-11-08T19:49:06.055Z,16.25
2022-11-08T19:51:36.016Z,17.08
2022-11-08T19:54:06.346Z,17.73
2022-11-08T19:57:03.353Z,19.45
2022-11-08T19:59:27.660Z,18.65
2022-11-08T20:01:58.018Z,20.52
2022-11-08T20:04:27.439Z,19.38
2022-11-08T20:06:56.005Z,40.95
2022-11-08T20:09:30.590Z,26.92
2022-11-08T20:11:59.458Z,18.77
2022-11-08T20:14:30.435Z,15.75
2022-11-08T20:16:59.099Z,19.67
2022-11-08T20:19:28.776Z,17.60
2022-11-08T20:21:57.782Z,17.05
2022-11-08T20:24:27.851Z,18.30
2022-11-08T20:26:56.497Z,20.05
2022-11-08T20:29:25.581Z,19.50
2022-11-08T20:31:56.519Z,19.10
2022-11-08T20:34:25.928Z,18.70
2022-11-08T20:36:54.349Z,21.60
2022-11-08T20:39:22.814Z,21.25
2022-11-08T20:41:51.266Z,17.73
2022-11-08T20:44:20.332Z,20.65
2022-11-08T20:46:48.900Z,19.83
2022-11-08T20:49:18.990Z,18.70
2022-11-08T20:51:47.787Z,18.83
2022-11-08T20:54:16.779Z,18.08
2022-11-08T20:56:45.158Z,22.10
2022-11-08T20:59:15.044Z,21.48
2022-11-08T21:01:43.643Z,19.58
2022-11-08T21:04:12.015Z,20.33
2022-11-08T21:06:42.206Z,18.35
2022-11-08T21:09:34.549Z,18.30
2022-11-08T21:12:00.020Z,20.23
2022-11-08T21:14:28.649Z,17.70
2022-11-08T21:17:20.806Z,16.92
2022-11-08T21:19:45.775Z,20.38
2022-11-08T21:22:18.385Z,18.60
2022-11-08T21:24:48.461Z,17.25
2022-11-08T21:27:17.168Z,19.70
2022-11-08T21:29:45.537Z,20.80
2022-11-08T21:32:14.261Z,20.83
2022-11-08T21:34:46.383Z,21.20
2022-11-08T21:37:16.852Z,19.73
2022-11-08T21:39:45.923Z,18.73
2022-11-08T21:42:14.830Z,19.45
2022-11-08T21:44:43.511Z,17.98
2022-11-08T21:47:12.212Z,19.75
2022-11-08T21:49:40.827Z,22.20
2022-11-08T21:52:09.202Z,19.77
2022-11-08T21:54:39.017Z,20.35
2022-11-08T21:57:07.421Z,21.77
2022-11-08T21:59:35.784Z,19.85
2022-11-08T22:02:04.237Z,19.73
2022-11-08T22:04:33.265Z,19.98
2022-11-08T22:07:01.657Z,23.05
2022-11-08T22:09:30.189Z,19.45
2022-11-08T22:12:00.112Z,19.08
2022-11-08T22:14:28.535Z,21.65
2022-11-08T22:16:58.075Z,19.90
2022-11-08T22:19:26.548Z,23.73
2022-11-08T22:21:55.129Z,21.15
2022-11-08T22:24:23.430Z,22.30
2022-11-08T22:26:53.183Z,20.45
2022-11-08T22:29:23.049Z,19.15
2022-11-08T22:31:52.292Z,22.67
2022-11-08T22:34:21.044Z,23.35
2022-11-08T22:36:51.018Z,22.05
2022-11-08T22:39:21.123Z,25.33
2022-11-08T22:41:51.447Z,21.95
2022-11-08T22:44:21.646Z,20.65
2022-11-08T22:46:51.474Z,19.33
2022-11-08T22:49:19.855Z,24.15
2022-11-08T22:51:48.251Z,21.27
2022-11-08T22:54:16.587Z,25.92
2022-11-08T22:56:45.242Z,22.20
2022-11-08T22:59:14.056Z,22.02
2022-11-08T23:01:42.408Z,21.02
2022-11-08T23:04:12.284Z,22.30
2022-11-08T23:06:41.093Z,19.65
2022-11-08T23:09:10.293Z,24.17
2022-11-08T23:11:55.848Z,20.75
2022-11-08T23:14:49.830Z,19.08
2022-11-08T23:17:18.352Z,20.17
2022-11-08T23:20:05.395Z,20.20
2022-11-08T23:22:51.127Z,20.88
2022-11-08T23:25:19.787Z,21.75
2022-11-08T23:28:14.097Z,22.60
2022-11-08T23:30:59.901Z,23.42
2022-11-08T23:33:28.279Z,23.90
2022-11-08T23:36:15.234Z,23.20
2022-11-08T23:38:44.107Z,23.33
2022-11-08T23:41:29.799Z,26.88
2022-11-08T23:44:15.570Z,20.23
2022-11-08T23:46:43.957Z,23.85
2022-11-08T23:49:13.059Z,21.30
2022-11-08T23:51:43.091Z,23.52
2022-11-08T23:54:11.780Z,21.95
2022-11-08T23:56:40.301Z,21.00
2022-11-08T23:59:09.647Z,20.75
